Time;durP1;ratioP1;P1;durP2;ratioP2;P2;SDS_P1;SDS_P2;PMS_P1;PMS_P2;Temp;Humidity;BMP_temperature;BMP_pressure;BME280_temperature;BME280_humidity;BME280_pressure;Samples;Min_cycle;Max_cycle;Signal;HPM_P1;HPM_P2
2023/05/06 00:01:33;;;;;;;18.83;10.43;;;14.10;99.90;;;;;;5034454;28;20700;-78
2023/05/06 00:03:59;;;;;;;15.43;11.07;;;14.20;99.90;;;;;;5050906;28;20572;-78
2023/05/06 00:06:26;;;;;;;11.70;9.07;;;14.10;99.90;;;;;;5052592;28;20677;-78
2023/05/06 00:08:51;;;;;;;22.30;10.40;;;14.20;99.90;;;;;;5050501;28;20684;-79
2023/05/06 00:11:17;;;;;;;13.83;8.13;;;14.20;99.90;;;;;;5051254;28;20426;-80
2023/05/06 00:13:42;;;;;;;12.07;7.97;;;14.10;99.90;;;;;;5034134;28;20180;-80
2023/05/06 00:16:08;;;;;;;10.23;8.30;;;14.10;99.90;;;;;;5051010;28;20184;-79
2023/05/06 00:18:34;;;;;;;12.00;8.97;;;14.10;99.90;;;;;;5033561;28;20218;-78
2023/05/06 00:20:59;;;;;;;12.00;9.10;;;14.10;99.90;;;;;;5034824;28;20184;-81
2023/05/06 00:23:25;;;;;;;15.30;9.67;;;14.20;99.90;;;;;;5034180;28;20245;-79
2023/05/06 00:25:53;;;;;;;15.87;8.40;;;14.10;99.90;;;;;;5017409;28;20306;-80
2023/05/06 00:28:18;;;;;;;12.20;8.23;;;14.00;99.90;;;;;;5051054;28;20349;-80
2023/05/06 00:30:44;;;;;;;12.23;8.63;;;14.00;99.90;;;;;;5018260;28;20857;-79
2023/05/06 00:33:09;;;;;;;11.00;8.67;;;14.00;99.90;;;;;;5018138;28;20191;-80
2023/05/06 00:35:35;;;;;;;13.33;9.60;;;14.10;99.90;;;;;;5018053;28;20193;-79
2023/05/06 00:38:19;;;;;;;14.60;10.37;;;14.10;99.90;;;;;;5051960;28;20291;-80
2023/05/06 00:40:44;;;;;;;19.43;10.60;;;14.10;99.90;;;;;;5052071;28;20186;-80
2023/05/06 00:43:10;;;;;;;15.30;10.37;;;14.10;99.90;;;;;;5051490;28;20419;-80
2023/05/06 00:45:37;;;;;;;10.03;8.00;;;14.10;99.90;;;;;;5034631;28;20199;-79
2023/05/06 00:48:04;;;;;;;17.23;10.50;;;14.00;99.90;;;;;;5051152;28;20591;-78
2023/05/06 00:50:31;;;;;;;15.80;10.37;;;14.00;99.90;;;;;;5052316;28;20432;-79
2023/05/06 00:52:58;;;;;;;14.50;10.60;;;14.10;99.90;;;;;;5050909;28;20429;-78
2023/05/06 00:55:25;;;;;;;13.83;9.00;;;14.00;99.90;;;;;;5049994;28;20422;-78
2023/05/06 00:57:51;;;;;;;14.90;9.60;;;14.00;99.90;;;;;;5049894;28;20975;-77
2023/05/06 01:00:18;;;;;;;16.43;10.10;;;14.00;99.90;;;;;;5051024;28;20789;-77
2023/05/06 01:02:43;;;;;;;15.30;10.30;;;14.00;99.90;;;;;;5050898;28;20418;-78
2023/05/06 01:05:10;;;;;;;17.57;10.87;;;14.00;99.90;;;;;;5050807;28;20513;-77
2023/05/06 01:07:56;;;;;;;16.63;10.70;;;14.10;99.90;;;;;;5049380;28;20224;-77
2023/05/06 01:10:48;;;;;;;17.57;10.37;;;14.10;99.90;;;;;;5051250;28;20494;-78
2023/05/06 01:13:37;;;;;;;14.27;9.77;;;14.10;99.90;;;;;;5049603;28;20437;-78
2023/05/06 01:16:06;;;;;;;19.53;9.60;;;14.10;99.90;;;;;;5049346;28;20513;-79
2023/05/06 01:18:32;;;;;;;14.03;9.60;;;14.00;99.90;;;;;;5051219;28;20449;-79
2023/05/06 01:20:59;;;;;;;13.67;9.13;;;14.00;99.90;;;;;;5051228;28;20427;-78
2023/05/06 01:23:24;;;;;;;10.97;8.00;;;14.00;99.90;;;;;;5050966;28;20414;-78
2023/05/06 01:25:50;;;;;;;10.17;8.17;;;13.90;99.90;;;;;;5049364;28;20498;-76
2023/05/06 01:28:16;;;;;;;27.13;9.30;;;13.90;99.90;;;;;;5051236;28;20207;-77
2023/05/06 01:30:50;;;;;;;9.90;7.60;;;13.90;99.90;;;;;;5049212;28;20275;-79
2023/05/06 01:33:22;;;;;;;17.67;7.20;;;13.90;99.90;;;;;;5051318;28;20204;-77
2023/05/06 01:36:10;;;;;;;8.43;5.53;;;13.90;99.90;;;;;;5051389;28;20414;-78
2023/05/06 01:38:46;;;;;;;11.57;6.77;;;13.90;99.90;;;;;;5049231;28;20438;-78
2023/05/06 01:41:15;;;;;;;14.93;6.60;;;13.80;99.90;;;;;;5049893;28;20478;-78
2023/05/06 01:43:43;;;;;;;17.73;7.10;;;13.70;99.90;;;;;;5051140;28;20932;-78
2023/05/06 01:46:14;;;;;;;10.00;6.90;;;13.70;99.90;;;;;;5051464;28;20553;-78
2023/05/06 01:48:41;;;;;;;11.07;7.37;;;13.70;99.90;;;;;;5051843;28;20787;-78
2023/05/06 01:51:07;;;;;;;14.97;7.03;;;13.60;99.90;;;;;;5051385;28;20478;-79
2023/05/06 01:53:33;;;;;;;9.33;7.57;;;13.60;99.90;;;;;;5050183;28;20461;-78
2023/05/06 01:55:58;;;;;;;9.50;6.63;;;13.60;99.90;;;;;;5033082;28;20188;-79
2023/05/06 01:58:24;;;;;;;11.23;7.10;;;13.40;99.90;;;;;;5050235;28;20208;-78
2023/05/06 02:00:49;;;;;;;10.40;6.60;;;13.30;99.90;;;;;;5048804;28;20183;-78
2023/05/06 02:03:15;;;;;;;10.27;7.23;;;13.30;99.90;;;;;;5048819;28;20261;-79
2023/05/06 02:05:40;;;;;;;8.30;6.00;;;13.20;99.90;;;;;;5048829;28;20289;-77
2023/05/06 02:08:06;;;;;;;7.60;6.53;;;13.20;99.90;;;;;;5050703;28;20582;-78
2023/05/06 02:10:32;;;;;;;13.13;7.50;;;13.20;99.90;;;;;;5049908;28;20236;-77
2023/05/06 02:12:57;;;;;;;10.93;6.57;;;13.30;99.90;;;;;;5051099;28;20211;-78
2023/05/06 02:15:23;;;;;;;17.33;7.63;;;13.20;99.90;;;;;;5050331;28;20189;-78
2023/05/06 02:17:48;;;;;;;13.13;8.10;;;13.10;99.90;;;;;;5051227;28;20200;-77
2023/05/06 02:20:14;;;;;;;9.00;7.13;;;13.10;99.90;;;;;;5049459;28;20213;-79
2023/05/06 02:22:40;;;;;;;10.10;7.70;;;13.00;99.90;;;;;;5034065;28;20550;-78
2023/05/06 02:25:06;;;;;;;11.50;8.50;;;13.10;99.90;;;;;;5050370;28;20191;-78
2023/05/06 02:27:31;;;;;;;10.40;8.27;;;13.00;99.90;;;;;;5049441;28;20720;-78
2023/05/06 02:29:58;;;;;;;15.13;9.13;;;12.90;99.90;;;;;;5048334;28;20422;-77
2023/05/06 02:32:24;;;;;;;13.97;8.13;;;12.80;99.90;;;;;;5047909;28;20282;-79
2023/05/06 02:34:50;;;;;;;11.27;7.70;;;12.70;99.90;;;;;;5048189;28;20505;-77
2023/05/06 02:37:16;;;;;;;20.67;9.50;;;12.80;99.90;;;;;;5051236;28;20182;-78
2023/05/06 02:39:41;;;;;;;17.63;8.50;;;12.70;99.90;;;;;;5048679;28;20422;-78
2023/05/06 02:42:07;;;;;;;12.30;7.77;;;12.60;99.90;;;;;;5033381;28;20191;-77
2023/05/06 02:44:32;;;;;;;8.83;7.53;;;12.50;99.90;;;;;;5035128;28;20197;-78
2023/05/06 02:46:58;;;;;;;13.70;7.83;;;12.40;99.90;;;;;;5052673;28;20257;-78
2023/05/06 02:49:23;;;;;;;12.90;7.60;;;12.50;99.90;;;;;;5054825;28;20241;-77
2023/05/06 02:51:49;;;;;;;12.07;8.00;;;12.30;99.90;;;;;;5054429;28;20241;-78
2023/05/06 02:54:15;;;;;;;19.87;8.00;;;12.00;99.90;;;;;;5035915;28;20200;-77
2023/05/06 02:56:42;;;;;;;10.07;7.27;;;12.20;99.90;;;;;;5051414;28;20221;-77
2023/05/06 02:59:07;;;;;;;10.43;8.43;;;12.10;99.90;;;;;;5052812;28;20212;-77
2023/05/06 03:01:33;;;;;;;18.93;9.13;;;12.00;99.90;;;;;;5051391;28;20432;-77
2023/05/06 03:03:58;;;;;;;18.43;8.60;;;12.00;99.90;;;;;;5053161;28;20186;-77
2023/05/06 03:06:24;;;;;;;10.63;9.20;;;12.00;99.90;;;;;;5034669;28;20210;-79
2023/05/06 03:08:50;;;;;;;11.07;9.10;;;12.10;99.90;;;;;;5035170;28;20263;-77
2023/05/06 03:11:15;;;;;;;16.10;9.43;;;12.00;99.90;;;;;;5018496;28;20187;-77
2023/05/06 03:13:41;;;;;;;13.20;9.47;;;12.00;99.90;;;;;;5053138;28;20223;-77
2023/05/06 03:16:12;;;;;;;14.97;9.10;;;11.90;99.90;;;;;;5052013;28;20208;-78
2023/05/06 03:18:37;;;;;;;11.20;7.97;;;11.70;99.90;;;;;;5052802;28;20218;-77
2023/05/06 03:21:03;;;;;;;9.53;7.53;;;11.80;99.90;;;;;;5054360;28;20428;-76
2023/05/06 03:23:29;;;;;;;10.77;6.60;;;11.90;99.90;;;;;;5053885;28;20181;-77
2023/05/06 03:25:55;;;;;;;9.77;6.77;;;11.80;99.90;;;;;;5053759;28;21047;-76
2023/05/06 03:28:20;;;;;;;18.60;7.83;;;11.80;99.90;;;;;;5053834;28;20236;-77
2023/05/06 03:30:46;;;;;;;9.80;6.40;;;11.70;99.90;;;;;;5053471;28;20195;-76
2023/05/06 03:33:11;;;;;;;26.33;7.23;;;11.60;99.90;;;;;;5051135;28;20194;-77
2023/05/06 03:35:37;;;;;;;12.00;6.30;;;11.80;99.90;;;;;;5052569;28;20277;-77
2023/05/06 03:38:03;;;;;;;12.50;6.33;;;11.70;99.90;;;;;;5052437;28;20202;-76
2023/05/06 03:40:28;;;;;;;6.93;5.90;;;11.70;99.90;;;;;;5052166;28;20352;-75
2023/05/06 03:42:54;;;;;;;7.00;5.20;;;11.60;99.90;;;;;;5052121;28;20179;-75
2023/05/06 03:45:19;;;;;;;8.50;5.60;;;11.70;99.90;;;;;;5050641;28;20197;-76
2023/05/06 03:47:45;;;;;;;14.33;6.30;;;11.80;99.90;;;;;;5050958;28;20919;-77
2023/05/06 03:50:11;;;;;;;10.40;5.77;;;11.80;99.90;;;;;;5050553;28;20290;-77
2023/05/06 03:52:37;;;;;;;11.00;5.60;;;12.00;99.90;;;;;;5051315;28;20219;-76
2023/05/06 03:55:03;;;;;;;17.73;6.07;;;12.00;99.90;;;;;;5051901;28;20514;-77
2023/05/06 03:57:29;;;;;;;7.73;6.07;;;12.00;99.90;;;;;;5051579;28;20187;-77
2023/05/06 03:59:54;;;;;;;12.27;5.70;;;12.00;99.90;;;;;;5051568;28;20437;-77
2023/05/06 04:02:20;;;;;;;17.10;5.70;;;12.00;99.90;;;;;;5051737;28;20398;-77
2023/05/06 04:04:46;;;;;;;14.03;5.33;;;11.90;99.90;;;;;;5034647;28;20936;-78
2023/05/06 04:07:11;;;;;;;6.27;4.30;;;11.80;99.90;;;;;;5034668;28;20242;-78
2023/05/06 04:09:37;;;;;;;9.10;5.07;;;11.80;99.90;;;;;;5052540;28;20210;-77
2023/05/06 04:12:03;;;;;;;5.67;3.80;;;11.70;99.90;;;;;;5051028;28;20193;-78
2023/05/06 04:14:28;;;;;;;8.20;3.80;;;11.80;99.90;;;;;;5051808;28;20193;-78
2023/05/06 04:16:54;;;;;;;10.10;4.20;;;11.80;99.90;;;;;;5018496;28;20205;-77
2023/05/06 04:19:20;;;;;;;5.87;3.90;;;11.80;99.90;;;;;;5035546;28;20206;-78
2023/05/06 04:21:46;;;;;;;8.47;4.27;;;12.00;99.90;;;;;;5034671;28;20284;-77
2023/05/06 04:24:14;;;;;;;8.23;4.47;;;12.00;99.90;;;;;;5033794;28;20437;-77
2023/05/06 04:26:40;;;;;;;8.93;4.83;;;12.20;99.90;;;;;;5051520;28;20220;-78
2023/05/06 04:29:06;;;;;;;11.90;7.10;;;12.20;99.90;;;;;;5052095;28;20510;-77
2023/05/06 04:31:33;;;;;;;24.13;10.87;;;12.20;99.90;;;;;;5050105;28;20845;-76
2023/05/06 04:33:59;;;;;;;24.53;11.90;;;12.30;99.90;;;;;;5049962;28;20509;-78
2023/05/06 04:36:25;;;;;;;11.87;9.80;;;12.30;99.90;;;;;;5051184;28;21265;-78
2023/05/06 04:38:52;;;;;;;9.40;6.67;;;12.30;99.90;;;;;;5049682;28;20444;-77
2023/05/06 04:41:18;;;;;;;7.67;6.97;;;12.40;99.90;;;;;;5051150;28;20184;-77
2023/05/06 04:43:43;;;;;;;9.80;6.13;;;12.60;99.90;;;;;;5051367;28;20516;-77
2023/05/06 04:46:09;;;;;;;5.53;5.03;;;12.40;99.90;;;;;;5051207;28;20488;-76
2023/05/06 04:48:35;;;;;;;13.97;4.73;;;12.50;99.90;;;;;;5051093;28;20206;-77
2023/05/06 04:51:04;;;;;;;17.20;3.40;;;12.50;99.90;;;;;;5051328;28;20202;-77
2023/05/06 04:53:30;;;;;;;7.03;4.43;;;12.50;99.90;;;;;;5051501;28;20504;-77
2023/05/06 04:55:55;;;;;;;4.97;3.80;;;12.40;99.90;;;;;;5051571;28;21102;-75
2023/05/06 04:58:21;;;;;;;4.77;3.97;;;12.50;99.90;;;;;;5051394;28;20453;-77
2023/05/06 05:00:46;;;;;;;5.47;3.23;;;12.40;99.90;;;;;;5051586;28;20729;-77
2023/05/06 05:03:12;;;;;;;7.73;4.00;;;12.40;99.90;;;;;;5051094;28;20171;-77
2023/05/06 05:05:38;;;;;;;5.77;3.70;;;12.40;99.90;;;;;;5050526;28;20176;-77
2023/05/06 05:08:03;;;;;;;7.63;3.60;;;12.50;99.90;;;;;;5050003;28;20264;-76
2023/05/06 05:10:29;;;;;;;4.47;3.90;;;12.60;99.90;;;;;;5050194;28;20540;-77
2023/05/06 05:12:55;;;;;;;7.07;4.20;;;12.80;99.90;;;;;;5051567;28;20256;-76
2023/05/06 05:15:20;;;;;;;7.50;4.30;;;12.90;99.90;;;;;;5052541;28;20206;-78
2023/05/06 05:17:46;;;;;;;16.57;4.97;;;12.90;99.90;;;;;;5056417;28;20670;-77
2023/05/06 05:20:12;;;;;;;10.70;5.00;;;13.00;99.90;;;;;;5038975;28;20762;-77
2023/05/06 05:22:37;;;;;;;6.43;4.47;;;13.10;99.90;;;;;;5053508;28;20218;-77
2023/05/06 05:25:03;;;;;;;15.00;5.30;;;13.20;99.90;;;;;;5054886;28;20729;-76
2023/05/06 05:27:29;;;;;;;12.40;5.10;;;13.20;99.90;;;;;;5036120;28;20223;-76
2023/05/06 05:29:55;;;;;;;8.40;4.10;;;13.30;99.90;;;;;;5054075;28;20421;-75
2023/05/06 05:32:21;;;;;;;6.30;3.77;;;13.40;99.90;;;;;;5052551;28;20863;-74
2023/05/06 05:34:46;;;;;;;10.17;4.00;;;13.50;99.90;;;;;;5057097;28;20501;-74
2023/05/06 05:37:12;;;;;;;8.37;4.30;;;13.60;99.90;;;;;;5059162;28;20195;-74
2023/05/06 05:39:37;;;;;;;13.13;3.97;;;13.60;99.90;;;;;;5055162;28;20203;-76
2023/05/06 05:42:03;;;;;;;4.00;3.70;;;13.70;99.90;;;;;;5048705;28;20251;-75
2023/05/06 05:44:29;;;;;;;5.13;3.80;;;13.80;99.90;;;;;;5049461;28;20682;-74
2023/05/06 05:46:55;;;;;;;6.70;4.33;;;13.90;99.90;;;;;;5049523;28;20242;-74
2023/05/06 05:49:20;;;;;;;5.60;4.20;;;14.10;99.90;;;;;;5047989;28;21062;-75
2023/05/06 05:51:46;;;;;;;8.70;4.10;;;14.30;99.90;;;;;;5047852;28;20184;-74
2023/05/06 05:54:13;;;;;;;7.00;3.70;;;14.40;99.90;;;;;;5049209;28;20210;-74
2023/05/06 05:56:38;;;;;;;8.67;4.70;;;14.40;99.90;;;;;;5049645;28;20313;-74
2023/05/06 05:59:04;;;;;;;5.67;4.20;;;14.40;99.90;;;;;;5047800;28;20533;-74
2023/05/06 06:01:30;;;;;;;7.63;4.30;;;14.40;99.90;;;;;;5049226;28;20183;-75
2023/05/06 06:03:56;;;;;;;7.77;4.13;;;14.40;99.90;;;;;;5047922;28;20958;-75
2023/05/06 06:06:23;;;;;;;8.67;4.80;;;14.50;99.90;;;;;;5047667;28;20573;-74
2023/05/06 06:08:49;;;;;;;7.73;4.00;;;14.60;99.90;;;;;;5049137;28;20457;-75
2023/05/06 06:11:14;;;;;;;5.33;3.80;;;14.80;99.90;;;;;;5049144;28;20928;-75
2023/05/06 06:13:40;;;;;;;4.80;4.20;;;14.90;99.90;;;;;;5049206;28;20555;-74
2023/05/06 06:16:06;;;;;;;7.03;4.30;;;15.00;99.90;;;;;;5048731;28;20184;-74
2023/05/06 06:18:31;;;;;;;8.37;4.57;;;15.00;99.90;;;;;;5048649;28;20242;-73
2023/05/06 06:20:57;;;;;;;7.77;4.20;;;15.00;99.90;;;;;;5048726;28;20333;-73
2023/05/06 06:23:23;;;;;;;6.23;3.97;;;15.10;99.90;;;;;;5048859;28;20184;-74
2023/05/06 06:25:49;;;;;;;8.17;4.80;;;15.30;99.90;;;;;;5048556;28;20200;-74
2023/05/06 06:28:14;;;;;;;5.10;4.60;;;15.30;99.90;;;;;;5047139;28;20821;-74
2023/05/06 06:30:40;;;;;;;6.83;4.60;;;15.40;99.90;;;;;;5049021;28;20915;-74
2023/05/06 06:33:06;;;;;;;6.30;4.03;;;15.60;99.90;;;;;;5048879;28;20720;-74
2023/05/06 06:35:31;;;;;;;4.50;4.10;;;15.70;99.90;;;;;;5047216;28;20422;-73
2023/05/06 06:37:57;;;;;;;4.40;4.00;;;15.80;99.90;;;;;;5048759;28;20216;-74
2023/05/06 06:40:23;;;;;;;6.50;4.17;;;16.10;99.90;;;;;;5048813;28;20196;-74
2023/05/06 06:42:48;;;;;;;5.00;4.07;;;16.20;99.90;;;;;;5047339;28;20207;-74
2023/05/06 06:45:14;;;;;;;14.37;5.20;;;16.40;99.90;;;;;;5048483;28;20190;-74
2023/05/06 06:47:40;;;;;;;4.97;3.50;;;16.20;99.90;;;;;;5047069;28;20222;-74
2023/05/06 06:50:07;;;;;;;5.43;4.97;;;16.00;99.90;;;;;;5048620;28;20182;-75
2023/05/06 06:52:34;;;;;;;5.83;4.77;;;15.70;99.90;;;;;;5045764;28;20469;-74
2023/05/06 06:55:00;;;;;;;7.13;5.03;;;15.60;99.90;;;;;;5047245;28;20474;-74
2023/05/06 06:57:26;;;;;;;5.60;4.40;;;15.60;99.90;;;;;;5047450;28;20432;-74
2023/05/06 06:59:52;;;;;;;7.00;4.60;;;15.60;99.90;;;;;;5047279;28;20803;-74
2023/05/06 07:02:19;;;;;;;4.87;4.47;;;15.60;99.90;;;;;;5047660;28;20191;-73
2023/05/06 07:04:45;;;;;;;4.43;4.03;;;15.60;99.90;;;;;;5047708;28;20427;-73
2023/05/06 07:07:10;;;;;;;9.87;5.17;;;15.70;99.90;;;;;;5047819;28;20470;-74
2023/05/06 07:09:36;;;;;;;3.67;3.33;;;15.80;99.90;;;;;;5047132;28;20232;-72
2023/05/06 07:12:01;;;;;;;5.77;3.70;;;15.70;99.90;;;;;;5047199;28;20666;-74
2023/05/06 07:14:27;;;;;;;5.23;4.63;;;15.60;99.90;;;;;;5047184;28;20265;-75
2023/05/06 07:16:53;;;;;;;5.17;4.47;;;15.50;99.90;;;;;;5045796;28;20190;-75
2023/05/06 07:19:18;;;;;;;7.37;4.47;;;15.50;99.90;;;;;;5047198;28;20303;-74
2023/05/06 07:21:44;;;;;;;6.00;4.80;;;15.40;99.90;;;;;;5047220;28;20200;-73
2023/05/06 07:24:10;;;;;;;4.87;3.63;;;15.50;99.90;;;;;;5047005;28;20691;-74
2023/05/06 07:26:36;;;;;;;3.67;3.33;;;15.80;99.90;;;;;;5045522;28;20239;-73
2023/05/06 07:29:03;;;;;;;4.47;3.10;;;16.00;99.90;;;;;;5050723;28;20723;-74
2023/05/06 07:31:28;;;;;;;7.70;3.90;;;16.20;99.90;;;;;;5049412;28;20422;-74
2023/05/06 07:33:54;;;;;;;4.83;3.27;;;16.40;99.90;;;;;;5049363;28;20433;-75
2023/05/06 07:36:20;;;;;;;5.20;2.60;;;16.50;99.90;;;;;;5051044;28;20298;-74
2023/05/06 07:38:45;;;;;;;3.57;3.00;;;16.60;99.90;;;;;;5050774;28;20866;-74
2023/05/06 07:41:11;;;;;;;2.50;2.30;;;16.70;99.90;;;;;;5049263;28;20241;-74
2023/05/06 07:43:37;;;;;;;4.37;2.73;;;16.80;99.90;;;;;;5050384;28;20335;-74
2023/05/06 07:46:02;;;;;;;4.13;2.70;;;16.70;99.90;;;;;;5050489;28;20200;-74
2023/05/06 07:48:28;;;;;;;2.37;2.10;;;16.60;99.90;;;;;;5050341;28;20208;-75
2023/05/06 07:50:55;;;;;;;2.70;2.50;;;16.40;99.90;;;;;;5049200;28;20430;-74
2023/05/06 07:53:21;;;;;;;2.77;2.53;;;16.40;99.90;;;;;;5050454;28;20420;-74
2023/05/06 07:55:46;;;;;;;2.90;2.53;;;16.30;99.90;;;;;;5050748;28;20504;-74
2023/05/06 07:58:12;;;;;;;4.80;2.17;;;16.30;99.90;;;;;;5050533;28;21012;-75
2023/05/06 08:00:37;;;;;;;6.33;2.57;;;16.40;99.90;;;;;;5050726;28;20189;-74
2023/05/06 08:03:03;;;;;;;7.73;2.67;;;16.30;99.90;;;;;;5050916;28;20196;-73
2023/05/06 08:05:29;;;;;;;4.00;2.63;;;16.30;99.90;;;;;;5050732;28;20192;-74
2023/05/06 08:07:54;;;;;;;4.00;2.50;;;16.30;99.90;;;;;;5050635;28;20226;-74
2023/05/06 08:10:21;;;;;;;2.67;2.40;;;16.20;99.90;;;;;;5050555;28;20307;-74
2023/05/06 08:12:46;;;;;;;4.13;2.33;;;16.30;99.90;;;;;;5050396;28;20188;-75
2023/05/06 08:15:12;;;;;;;7.23;2.27;;;16.50;99.90;;;;;;5050414;28;20494;-76
2023/05/06 08:17:38;;;;;;;2.50;2.00;;;16.70;99.90;;;;;;5049281;28;20209;-74
2023/05/06 08:20:04;;;;;;;2.87;2.00;;;16.70;99.90;;;;;;5049305;28;20194;-75
2023/05/06 08:22:29;;;;;;;3.80;2.40;;;17.00;99.90;;;;;;5048860;28;20207;-74
2023/05/06 08:24:56;;;;;;;2.00;1.83;;;16.80;99.90;;;;;;5048762;28;20436;-74
2023/05/06 08:27:21;;;;;;;2.57;2.00;;;17.20;99.90;;;;;;5048824;28;20276;-75
2023/05/06 08:29:47;;;;;;;1.50;1.40;;;17.50;99.90;;;;;;5048296;28;20424;-75
2023/05/06 08:32:13;;;;;;;2.23;1.93;;;17.80;99.90;;;;;;5049616;28;20293;-75
2023/05/06 08:34:38;;;;;;;2.00;1.90;;;18.00;99.90;;;;;;5049531;28;20701;-75
2023/05/06 08:37:04;;;;;;;3.27;2.07;;;18.10;99.90;;;;;;5048021;28;20203;-75
2023/05/06 08:39:30;;;;;;;3.63;1.80;;;17.80;99.90;;;;;;5049427;28;20204;-75
2023/05/06 08:41:58;;;;;;;3.20;1.80;;;17.70;99.90;;;;;;5047980;28;20212;-75
2023/05/06 08:44:24;;;;;;;3.47;1.93;;;17.70;99.90;;;;;;5049173;28;20291;-75
2023/05/06 08:46:50;;;;;;;2.00;1.80;;;18.00;99.90;;;;;;5049953;28;20463;-75
2023/05/06 08:49:16;;;;;;;2.43;1.80;;;18.20;99.90;;;;;;5049749;28;20442;-75
2023/05/06 08:51:43;;;;;;;2.53;1.63;;;18.30;99.90;;;;;;5049942;28;20265;-75
2023/05/06 08:54:11;;;;;;;6.70;1.90;;;18.40;99.90;;;;;;5048430;28;20244;-74
2023/05/06 08:56:41;;;;;;;2.97;1.57;;;18.60;99.90;;;;;;5050302;28;20418;-75
2023/05/06 08:59:08;;;;;;;2.73;1.73;;;18.90;99.90;;;;;;5050075;28;20455;-74
2023/05/06 09:01:34;;;;;;;3.27;1.70;;;19.00;99.90;;;;;;5049962;28;20429;-74
2023/05/06 09:04:02;;;;;;;3.10;1.90;;;19.00;99.90;;;;;;5049629;28;20453;-74
2023/05/06 09:06:28;;;;;;;7.20;2.10;;;18.70;99.90;;;;;;5049502;28;20969;-75
2023/05/06 09:08:54;;;;;;;1.40;1.30;;;18.80;99.90;;;;;;5049626;28;20435;-74
2023/05/06 09:11:27;;;;;;;3.27;1.63;;;19.20;99.90;;;;;;5048168;28;20441;-73
2023/05/06 09:14:11;;;;;;;3.60;1.50;;;19.70;99.90;;;;;;5049375;28;20176;-74
2023/05/06 09:16:44;;;;;;;3.40;1.60;;;20.00;99.90;;;;;;5050130;28;20435;-75
2023/05/06 09:19:11;;;;;;;4.00;1.60;;;20.30;99.90;;;;;;5049560;28;20461;-76
2023/05/06 09:21:42;;;;;;;2.93;1.23;;;20.70;99.90;;;;;;5051126;28;20418;-76
2023/05/06 09:24:09;;;;;;;2.90;1.70;;;20.80;99.90;;;;;;5053064;28;20430;-77
2023/05/06 09:26:36;;;;;;;2.80;1.40;;;20.60;99.90;;;;;;5049433;28;20481;-76
2023/05/06 09:29:02;;;;;;;3.93;1.90;;;20.20;99.90;;;;;;5051322;28;20471;-76
2023/05/06 09:31:28;;;;;;;2.77;1.53;;;19.80;99.90;;;;;;5051656;28;20430;-76
2023/05/06 09:33:56;;;;;;;2.23;1.30;;;19.90;99.90;;;;;;5048481;28;20434;-76
2023/05/06 09:36:23;;;;;;;7.53;1.50;;;20.20;99.90;;;;;;5049128;28;20463;-77
2023/05/06 09:38:49;;;;;;;1.50;1.00;;;20.70;99.90;;;;;;5046993;28;20448;-76
2023/05/06 09:41:19;;;;;;;2.10;1.23;;;21.30;99.90;;;;;;5046935;28;20438;-77
2023/05/06 09:43:47;;;;;;;1.93;0.90;;;21.70;99.90;;;;;;5047181;28;20191;-76
2023/05/06 09:46:14;;;;;;;2.13;1.03;;;22.00;99.80;;;;;;5048561;28;20875;-77
2023/05/06 09:48:42;;;;;;;5.40;1.30;;;22.10;99.90;;;;;;5047391;28;20565;-77
2023/05/06 09:51:07;;;;;;;3.23;1.07;;;22.40;98.60;;;;;;5047297;28;20537;-77
2023/05/06 09:53:37;;;;;;;1.60;1.10;;;22.80;97.10;;;;;;5049033;28;21176;-77
2023/05/06 09:56:07;;;;;;;4.70;1.00;;;22.80;96.30;;;;;;5046841;28;20755;-77
2023/05/06 09:58:33;;;;;;;1.73;0.80;;;22.70;96.30;;;;;;5048282;28;20438;-77
2023/05/06 10:01:00;;;;;;;2.07;1.00;;;22.60;91.80;;;;;;5046641;28;20517;-77
2023/05/06 10:03:26;;;;;;;3.33;1.30;;;22.30;96.70;;;;;;5046680;28;20430;-75
2023/05/06 10:06:03;;;;;;;1.20;0.90;;;22.50;95.60;;;;;;5048731;28;20422;-77
2023/05/06 10:08:32;;;;;;;3.63;1.10;;;22.80;96.30;;;;;;5047996;28;20485;-77
2023/05/06 10:11:00;;;;;;;3.17;1.07;;;22.90;92.60;;;;;;5046562;28;20430;-76
2023/05/06 10:13:26;;;;;;;4.30;1.00;;;23.20;96.00;;;;;;5046608;28;20433;-76
2023/05/06 10:15:52;;;;;;;2.13;1.40;;;23.60;95.40;;;;;;5046278;28;20938;-76
2023/05/06 10:18:20;;;;;;;1.03;0.93;;;23.90;92.80;;;;;;5047611;28;20438;-75
2023/05/06 10:20:47;;;;;;;1.23;1.13;;;23.90;90.70;;;;;;5047887;28;20783;-76
2023/05/06 10:23:41;;;;;;;3.37;1.43;;;23.90;90.70;;;;;;5047410;28;20423;-78
2023/05/06 10:26:10;;;;;;;1.00;0.80;;;24.20;91.20;;;;;;5047201;28;20459;-75
2023/05/06 10:28:40;;;;;;;1.10;0.97;;;24.60;91.30;;;;;;5046673;28;20438;-75
2023/05/06 10:31:12;;;;;;;2.17;1.23;;;24.90;91.90;;;;;;5030517;28;20515;-75
2023/05/06 10:33:46;;;;;;;3.83;1.37;;;25.10;90.30;;;;;;5046747;28;21136;-75
2023/05/06 10:36:22;;;;;;;3.67;1.33;;;24.60;85.40;;;;;;5048235;28;20417;-74
2023/05/06 10:38:55;;;;;;;3.90;1.17;;;23.70;90.20;;;;;;5047988;28;20427;-75
2023/05/06 10:41:26;;;;;;;1.50;0.90;;;24.00;91.90;;;;;;5046926;28;20460;-75
2023/05/06 10:43:56;;;;;;;2.50;1.23;;;24.10;87.20;;;;;;5046574;28;21302;-76
2023/05/06 10:46:26;;;;;;;1.77;1.00;;;23.70;90.00;;;;;;5046644;28;21003;-75
2023/05/06 10:49:09;;;;;;;3.37;0.83;;;23.90;89.20;;;;;;5048955;28;20531;-76
2023/05/06 10:51:40;;;;;;;2.03;0.97;;;24.00;88.90;;;;;;5046278;28;20479;-77
2023/05/06 10:54:06;;;;;;;2.87;0.93;;;24.40;87.30;;;;;;5045982;28;20444;-76
2023/05/06 10:56:37;;;;;;;2.17;1.07;;;24.80;83.30;;;;;;5045867;28;20427;-76
2023/05/06 10:59:10;;;;;;;1.30;0.90;;;24.90;82.80;;;;;;5047595;28;20446;-77
2023/05/06 11:01:37;;;;;;;2.30;0.70;;;25.10;78.70;;;;;;5047496;28;20447;-77
2023/05/06 11:04:14;;;;;;;2.10;0.90;;;25.20;77.20;;;;;;5051848;28;20417;-77
2023/05/06 11:06:43;;;;;;;1.43;1.00;;;25.20;75.30;;;;;;5051151;28;20919;-75
2023/05/06 11:09:19;;;;;;;1.23;0.90;;;25.20;79.90;;;;;;5049733;28;20887;-77
2023/05/06 11:11:56;;;;;;;2.17;1.27;;;25.40;79.90;;;;;;5051288;28;20459;-76
2023/05/06 11:14:29;;;;;;;2.83;1.20;;;25.10;79.80;;;;;;5051574;28;20437;-75
2023/05/06 11:16:58;;;;;;;3.03;1.13;;;24.60;78.60;;;;;;5049828;28;20433;-77
2023/05/06 11:19:35;;;;;;;1.40;1.30;;;24.30;80.40;;;;;;5033327;28;20455;-76
2023/05/06 11:22:03;;;;;;;1.97;1.00;;;23.70;81.10;;;;;;5051381;28;20928;-76
2023/05/06 11:24:38;;;;;;;1.63;1.00;;;23.00;83.10;;;;;;5051258;28;20420;-77
2023/05/06 11:27:04;;;;;;;1.80;0.83;;;23.10;85.00;;;;;;5050878;28;20559;-77
2023/05/06 11:29:31;;;;;;;5.90;0.97;;;23.60;85.60;;;;;;5051635;28;20553;-77
2023/05/06 11:31:57;;;;;;;1.23;1.00;;;24.10;84.10;;;;;;5051238;28;20494;-77
2023/05/06 11:34:25;;;;;;;1.87;0.90;;;24.40;80.50;;;;;;5051212;28;20462;-77
2023/05/06 11:37:04;;;;;;;1.00;0.83;;;24.70;79.40;;;;;;5049787;28;20424;-77
2023/05/06 11:39:32;;;;;;;1.97;1.43;;;24.80;80.30;;;;;;5051070;28;20440;-76
2023/05/06 11:42:03;;;;;;;1.43;0.67;;;25.00;73.80;;;;;;5049616;28;20458;-77
2023/05/06 11:44:34;;;;;;;1.30;0.73;;;24.80;67.20;;;;;;5049587;28;20439;-75
2023/05/06 11:47:03;;;;;;;1.00;0.90;;;24.60;73.80;;;;;;5051093;28;20804;-75
2023/05/06 11:49:29;;;;;;;1.00;0.80;;;25.00;74.40;;;;;;5050985;28;20508;-76
2023/05/06 11:51:58;;;;;;;0.97;0.83;;;25.20;78.50;;;;;;5051119;28;20494;-76
2023/05/06 11:54:26;;;;;;;1.20;0.67;;;25.40;72.20;;;;;;5050985;28;20423;-77
2023/05/06 11:56:55;;;;;;;5.67;0.70;;;25.30;69.70;;;;;;5049572;28;20434;-75
2023/05/06 11:59:52;;;;;;;6.13;1.13;;;25.00;71.90;;;;;;5050067;28;20443;-76
2023/05/06 12:02:18;;;;;;;3.53;1.20;;;25.00;74.50;;;;;;5048986;28;20806;-77
2023/05/06 12:04:45;;;;;;;10.73;1.17;;;25.20;78.30;;;;;;5049761;28;20819;-76
2023/05/06 12:07:12;;;;;;;3.23;1.33;;;25.20;79.40;;;;;;5049528;28;20465;-76
2023/05/06 12:09:45;;;;;;;3.47;1.13;;;25.10;74.50;;;;;;5049772;28;20902;-76
2023/05/06 12:12:15;;;;;;;2.43;1.00;;;25.20;74.80;;;;;;5048500;28;20428;-75
2023/05/06 12:14:41;;;;;;;3.20;0.80;;;25.00;74.50;;;;;;5047675;28;20467;-75
2023/05/06 12:17:07;;;;;;;3.50;2.80;;;24.90;77.80;;;;;;5049373;28;20812;-75
2023/05/06 12:19:33;;;;;;;3.53;1.67;;;24.80;75.00;;;;;;5049350;28;20445;-76
2023/05/06 12:22:16;;;;;;;3.30;1.17;;;24.30;75.50;;;;;;5049950;28;20643;-75
2023/05/06 12:24:42;;;;;;;1.50;1.30;;;24.10;78.10;;;;;;5047753;28;20424;-76
2023/05/06 12:27:08;;;;;;;2.90;1.30;;;23.90;73.00;;;;;;5049200;28;20484;-76
2023/05/06 12:29:34;;;;;;;2.60;0.87;;;23.60;74.30;;;;;;5049252;28;20485;-76
2023/05/06 12:32:07;;;;;;;2.30;1.10;;;23.70;75.30;;;;;;5049625;28;20181;-75
2023/05/06 12:34:40;;;;;;;2.10;1.17;;;23.50;74.60;;;;;;5049269;28;20177;-76
2023/05/06 12:37:07;;;;;;;1.87;0.83;;;24.00;71.40;;;;;;5049662;28;20438;-77
2023/05/06 12:39:37;;;;;;;3.23;1.00;;;24.20;72.70;;;;;;5049833;28;20515;-77
2023/05/06 12:42:03;;;;;;;6.70;1.80;;;24.10;69.30;;;;;;5050318;28;20460;-75
2023/05/06 12:44:31;;;;;;;3.53;1.07;;;24.10;70.50;;;;;;5049990;28;20440;-75